Time;durP1;ratioP1;P1;durP2;ratioP2;P2;SDS_P1;SDS_P2;PMS_P1;PMS_P2;Temp;Humidity;BMP_temperature;BMP_pressure;BME280_temperature;BME280_humidity;BME280_pressure;Samples;Min_cycle;Max_cycle;Signal;HPM_P1;HPM_P2
2022/03/18 00:02:08;;;;;;;38.55;16.52;;;2.10;99.90;;;;;;5011670;28;20046;-67
2022/03/18 00:04:34;;;;;;;47.63;17.67;;;2.10;99.90;;;;;;5012659;28;20053;-67
2022/03/18 00:06:59;;;;;;;41.65;16.88;;;2.10;99.90;;;;;;5008576;28;20038;-67
2022/03/18 00:09:25;;;;;;;39.65;14.93;;;2.00;99.90;;;;;;5017480;28;20068;-67
2022/03/18 00:11:51;;;;;;;34.08;16.23;;;2.00;99.90;;;;;;5009332;28;20041;-67
2022/03/18 00:14:19;;;;;;;27.63;15.93;;;2.00;99.90;;;;;;5018234;28;20461;-66
2022/03/18 00:16:44;;;;;;;26.17;15.73;;;1.90;99.90;;;;;;5018023;28;20491;-67
2022/03/18 00:19:10;;;;;;;34.67;16.45;;;1.90;99.90;;;;;;5018984;28;20084;-67
2022/03/18 00:21:36;;;;;;;32.47;15.32;;;1.90;99.90;;;;;;5010405;28;20077;-67
2022/03/18 00:24:03;;;;;;;24.52;15.00;;;1.90;99.90;;;;;;5003830;28;20050;-67
2022/03/18 00:26:29;;;;;;;26.42;14.60;;;1.90;99.90;;;;;;5018874;28;20851;-67
2022/03/18 00:28:57;;;;;;;33.17;15.43;;;1.80;99.90;;;;;;5017291;28;20049;-67
2022/03/18 00:31:23;;;;;;;39.78;16.00;;;1.80;99.90;;;;;;5006862;28;20050;-67
2022/03/18 00:33:49;;;;;;;36.25;18.10;;;1.80;99.90;;;;;;5010158;28;20038;-67
2022/03/18 00:36:15;;;;;;;34.45;17.63;;;1.70;99.90;;;;;;5011495;28;20049;-67
2022/03/18 00:38:41;;;;;;;35.33;16.25;;;1.70;99.90;;;;;;5018421;28;20391;-66
2022/03/18 00:41:07;;;;;;;32.55;16.35;;;1.70;99.90;;;;;;5012045;28;20049;-67
2022/03/18 00:43:33;;;;;;;26.92;17.15;;;1.70;99.90;;;;;;5011926;28;20042;-66
2022/03/18 00:45:58;;;;;;;30.52;16.45;;;1.70;99.90;;;;;;5005304;28;20129;-67
2022/03/18 00:54:07;;;;;;;26.08;17.77;;;1.60;99.90;;;;;;5007111;28;20573;-66
2022/03/18 00:56:33;;;;;;;34.33;18.30;;;1.60;99.90;;;;;;5014607;28;20037;-66
2022/03/18 00:58:59;;;;;;;33.33;16.42;;;1.60;99.90;;;;;;4993457;28;20178;-66
2022/03/18 01:01:26;;;;;;;33.25;17.58;;;1.60;99.90;;;;;;5010814;28;20081;-66
2022/03/18 01:03:52;;;;;;;36.75;17.95;;;1.60;99.90;;;;;;5005003;28;20056;-66
2022/03/18 01:06:18;;;;;;;30.85;18.02;;;1.60;99.90;;;;;;5010821;28;20037;-66
2022/03/18 01:08:43;;;;;;;27.15;17.98;;;1.60;99.90;;;;;;5008897;28;20046;-66
2022/03/18 01:11:09;;;;;;;36.28;18.85;;;1.60;99.90;;;;;;5003840;28;20042;-66
2022/03/18 01:13:35;;;;;;;35.22;19.13;;;1.60;99.90;;;;;;5021455;28;20041;-66
2022/03/18 01:16:00;;;;;;;31.02;18.10;;;1.60;99.90;;;;;;5009947;28;20469;-66
2022/03/18 01:18:27;;;;;;;37.40;19.38;;;1.60;99.90;;;;;;5015788;28;20046;-67
2022/03/18 01:20:53;;;;;;;36.90;19.17;;;1.60;99.90;;;;;;5010012;28;20142;-67
2022/03/18 01:23:18;;;;;;;35.58;19.45;;;1.60;99.90;;;;;;5009254;28;20134;-66
2022/03/18 01:25:44;;;;;;;35.03;19.67;;;1.60;99.90;;;;;;5015537;28;20068;-66
2022/03/18 01:28:09;;;;;;;33.65;18.80;;;1.60;99.90;;;;;;5005672;28;20053;-67
2022/03/18 01:30:35;;;;;;;38.35;18.25;;;1.60;99.90;;;;;;5009974;28;20137;-67
2022/03/18 01:33:01;;;;;;;31.60;18.13;;;1.60;99.90;;;;;;5006106;28;20038;-66
2022/03/18 01:35:27;;;;;;;42.45;19.30;;;1.60;99.90;;;;;;5009645;28;20558;-67
2022/03/18 01:37:53;;;;;;;31.25;18.33;;;1.60;99.90;;;;;;5009923;28;20538;-67
2022/03/18 01:40:19;;;;;;;33.45;20.45;;;1.60;99.90;;;;;;5015291;28;20042;-67
2022/03/18 01:42:45;;;;;;;33.40;17.98;;;1.60;99.90;;;;;;5009136;28;20675;-67
2022/03/18 01:45:10;;;;;;;35.50;17.98;;;1.50;99.90;;;;;;4992340;28;20058;-66
2022/03/18 01:47:42;;;;;;;34.67;18.65;;;1.50;99.90;;;;;;5011734;28;20057;-67
2022/03/18 01:50:13;;;;;;;36.40;19.08;;;1.50;99.90;;;;;;5005002;28;20046;-67
2022/03/18 01:52:39;;;;;;;40.13;18.77;;;1.50;99.90;;;;;;5008431;28;20093;-67
2022/03/18 01:55:05;;;;;;;35.00;18.08;;;1.50;99.90;;;;;;5005725;28;20042;-67
2022/03/18 01:57:31;;;;;;;25.45;17.38;;;1.50;99.90;;;;;;5007184;28;20053;-67
2022/03/18 01:59:57;;;;;;;33.65;17.33;;;1.50;99.90;;;;;;5007841;28;20491;-67
2022/03/18 02:02:23;;;;;;;44.97;20.20;;;1.50;99.90;;;;;;5007551;28;20046;-67
2022/03/18 02:04:49;;;;;;;33.45;18.55;;;1.50;99.90;;;;;;5006006;28;20050;-67
2022/03/18 02:07:16;;;;;;;25.38;16.98;;;1.40;99.90;;;;;;5003203;28;20049;-67
2022/03/18 02:09:44;;;;;;;35.13;17.50;;;1.40;99.90;;;;;;5009678;28;20096;-67
2022/03/18 02:12:11;;;;;;;28.80;15.95;;;1.40;99.90;;;;;;5003207;28;20419;-67
2022/03/18 02:14:37;;;;;;;40.35;18.63;;;1.40;99.90;;;;;;5014989;28;20056;-67
2022/03/18 02:17:05;;;;;;;33.63;19.67;;;1.40;99.90;;;;;;5008178;28;20095;-67
2022/03/18 02:19:31;;;;;;;36.17;17.67;;;1.40;99.90;;;;;;5009698;28;20052;-66
2022/03/18 02:21:58;;;;;;;33.42;17.98;;;1.40;99.90;;;;;;5004102;28;20282;-67
2022/03/18 02:24:24;;;;;;;40.58;19.77;;;1.40;99.90;;;;;;5008886;28;20097;-67
2022/03/18 02:26:52;;;;;;;38.20;18.50;;;1.40;99.90;;;;;;5006329;28;20140;-67
2022/03/18 02:29:19;;;;;;;32.90;18.67;;;1.30;99.90;;;;;;5010306;28;20042;-67
2022/03/18 02:31:45;;;;;;;42.03;19.23;;;1.30;99.90;;;;;;5012452;28;20678;-67
2022/03/18 02:34:11;;;;;;;36.70;17.92;;;1.30;99.90;;;;;;5011169;28;20049;-67
2022/03/18 02:36:37;;;;;;;27.05;18.30;;;1.30;99.90;;;;;;5009443;28;20049;-67
2022/03/18 02:39:03;;;;;;;26.08;17.58;;;1.30;99.90;;;;;;5005809;28;20396;-67
2022/03/18 02:41:29;;;;;;;37.67;17.88;;;1.30;99.90;;;;;;5008592;28;20046;-67
2022/03/18 02:43:55;;;;;;;37.88;18.95;;;1.30;99.90;;;;;;4997589;28;20089;-67
2022/03/18 02:46:21;;;;;;;29.70;19.02;;;1.30;99.90;;;;;;5002485;28;20112;-67
2022/03/18 02:48:47;;;;;;;33.92;19.02;;;1.30;99.90;;;;;;5006129;28;20057;-66
2022/03/18 02:51:13;;;;;;;33.22;20.20;;;1.30;99.90;;;;;;4999340;28;20456;-66
2022/03/18 02:53:40;;;;;;;36.22;18.58;;;1.30;99.90;;;;;;5007268;28;20172;-67
2022/03/18 02:56:07;;;;;;;28.30;17.70;;;1.30;99.90;;;;;;5006776;28;20037;-67
2022/03/18 02:58:34;;;;;;;39.67;20.10;;;1.30;99.90;;;;;;5004668;28;20054;-66
2022/03/18 03:01:00;;;;;;;36.15;20.15;;;1.20;99.90;;;;;;5006690;28;20069;-67
2022/03/18 03:03:25;;;;;;;41.90;21.85;;;1.20;99.90;;;;;;5011236;28;20134;-67
2022/03/18 03:08:35;;;;;;;40.85;21.15;;;1.30;99.90;;;;;;5008791;28;20049;-67
2022/03/18 03:11:01;;;;;;;37.65;21.60;;;1.30;99.90;;;;;;5009492;28;20088;-67
2022/03/18 03:13:26;;;;;;;33.80;21.50;;;1.30;99.90;;;;;;4998836;28;20053;-67
2022/03/18 03:15:52;;;;;;;41.88;21.33;;;1.30;99.90;;;;;;5008569;28;20076;-67
2022/03/18 03:18:18;;;;;;;34.50;20.17;;;1.30;99.90;;;;;;5013977;28;20078;-67
2022/03/18 03:20:44;;;;;;;43.33;21.83;;;1.30;99.90;;;;;;5009617;28;20045;-67
2022/03/18 03:23:09;;;;;;;42.08;23.65;;;1.30;99.90;;;;;;5004037;28;20053;-67
2022/03/18 03:25:35;;;;;;;44.20;22.15;;;1.30;99.90;;;;;;5006393;28;20042;-67
2022/03/18 03:28:01;;;;;;;43.80;23.50;;;1.30;99.90;;;;;;5007096;28;20058;-67
2022/03/18 03:30:26;;;;;;;37.08;22.10;;;1.40;99.90;;;;;;5014831;28;20054;-67
2022/03/18 03:32:52;;;;;;;37.20;20.73;;;1.40;99.90;;;;;;5010342;28;20396;-67
2022/03/18 03:35:19;;;;;;;32.47;20.85;;;1.40;99.90;;;;;;5011535;28;20041;-67
2022/03/18 03:37:45;;;;;;;48.47;23.13;;;1.40;99.90;;;;;;5011690;28;20491;-67
2022/03/18 03:40:13;;;;;;;40.50;24.55;;;1.40;99.90;;;;;;5016078;28;20151;-67
2022/03/18 03:42:45;;;;;;;39.63;25.35;;;1.40;99.90;;;;;;5007963;28;20054;-67
2022/03/18 03:45:12;;;;;;;40.20;24.25;;;1.50;99.90;;;;;;5005516;28;20085;-67
2022/03/18 03:47:39;;;;;;;50.03;28.88;;;1.50;99.90;;;;;;5012475;28;20084;-67
2022/03/18 03:50:06;;;;;;;50.97;28.05;;;1.50;99.90;;;;;;5007580;28;20438;-67
2022/03/18 03:52:32;;;;;;;53.03;26.23;;;1.60;99.90;;;;;;5018283;28;20030;-67
2022/03/18 03:54:58;;;;;;;45.25;26.33;;;1.60;99.90;;;;;;5008051;28;20095;-67
2022/03/18 03:57:23;;;;;;;60.65;26.23;;;1.60;99.90;;;;;;5010140;28;20161;-67
2022/03/18 03:59:50;;;;;;;52.53;25.38;;;1.60;99.90;;;;;;5010684;28;20490;-67
2022/03/18 04:02:16;;;;;;;46.40;26.02;;;1.70;99.90;;;;;;5011706;28;20042;-67
2022/03/18 04:04:41;;;;;;;46.00;25.67;;;1.70;99.90;;;;;;5015162;28;20042;-67
2022/03/18 04:07:08;;;;;;;38.13;26.27;;;1.70;99.90;;;;;;5011273;28;20093;-67
2022/03/18 04:09:33;;;;;;;38.90;22.15;;;1.70;99.90;;;;;;5013845;28;20084;-67
2022/03/18 04:11:59;;;;;;;34.35;23.85;;;1.70;99.90;;;;;;5010879;28;20049;-67
2022/03/18 04:14:25;;;;;;;42.78;22.80;;;1.70;99.90;;;;;;5009623;28;20046;-67
2022/03/18 04:16:50;;;;;;;46.88;24.00;;;1.60;99.90;;;;;;5011112;28;20104;-67
2022/03/18 04:19:17;;;;;;;37.30;21.83;;;1.60;99.90;;;;;;5011401;28;20373;-67
2022/03/18 04:21:43;;;;;;;41.90;23.23;;;1.60;99.90;;;;;;5006444;28;20107;-67
2022/03/18 04:24:09;;;;;;;37.83;24.40;;;1.60;99.90;;;;;;5007266;28;20084;-67
2022/03/18 04:26:35;;;;;;;52.20;23.65;;;1.60;99.90;;;;;;5000569;28;20054;-67
2022/03/18 04:29:00;;;;;;;45.75;22.98;;;1.60;99.90;;;;;;5006243;28;20057;-67
2022/03/18 04:31:26;;;;;;;36.08;21.50;;;1.60;99.90;;;;;;5011450;28;20458;-67
2022/03/18 04:33:52;;;;;;;36.00;21.42;;;1.50;99.90;;;;;;5015479;28;20041;-67
2022/03/18 04:36:18;;;;;;;37.33;20.58;;;1.50;99.90;;;;;;5009997;28;20038;-67
2022/03/18 04:38:44;;;;;;;35.03;20.55;;;1.50;99.90;;;;;;5007277;28;20088;-67
2022/03/18 04:41:10;;;;;;;32.30;18.55;;;1.50;99.90;;;;;;5010259;28;20570;-67
2022/03/18 04:43:36;;;;;;;27.38;20.17;;;1.50;99.90;;;;;;5008942;28;20133;-67
2022/03/18 04:46:02;;;;;;;35.20;20.88;;;1.40;99.90;;;;;;5004779;28;20054;-67
2022/03/18 04:48:28;;;;;;;41.50;21.58;;;1.40;99.90;;;;;;5019334;28;20536;-67
2022/03/18 04:50:54;;;;;;;27.55;18.25;;;1.40;99.90;;;;;;5009534;28;20050;-67
2022/03/18 04:53:20;;;;;;;31.20;19.60;;;1.40;99.90;;;;;;5010297;28;20050;-67
2022/03/18 04:55:45;;;;;;;28.60;19.77;;;1.30;99.90;;;;;;5008898;28;20435;-67
2022/03/18 04:58:11;;;;;;;36.92;19.58;;;1.30;99.90;;;;;;5002877;28;20049;-66
2022/03/18 05:00:37;;;;;;;34.78;19.13;;;1.30;99.90;;;;;;5002388;28;20073;-68
2022/03/18 05:03:03;;;;;;;30.60;19.98;;;1.30;99.90;;;;;;5008067;28;20082;-66
2022/03/18 05:05:29;;;;;;;26.98;18.58;;;1.30;99.90;;;;;;5010559;28;20057;-66
2022/03/18 05:07:54;;;;;;;26.38;18.95;;;1.30;99.90;;;;;;5004989;28;20050;-66
2022/03/18 05:10:22;;;;;;;26.27;17.38;;;1.20;99.90;;;;;;5011772;28;20054;-66
2022/03/18 05:12:48;;;;;;;35.60;19.20;;;1.20;99.90;;;;;;5006965;28;20500;-67
2022/03/18 05:15:14;;;;;;;26.70;19.85;;;1.20;99.90;;;;;;5010192;28;20045;-67
2022/03/18 05:17:40;;;;;;;34.90;21.08;;;1.10;99.90;;;;;;5016765;28;20041;-67
2022/03/18 05:20:10;;;;;;;35.33;20.20;;;1.20;99.90;;;;;;5013916;28;20095;-67
2022/03/18 05:22:36;;;;;;;27.58;19.55;;;1.20;99.90;;;;;;5009281;28;20069;-67
2022/03/18 05:25:02;;;;;;;29.50;19.45;;;1.20;99.90;;;;;;5007403;28;20037;-67
2022/03/18 05:27:28;;;;;;;32.03;20.02;;;1.10;99.90;;;;;;5007208;28;20046;-67
2022/03/18 05:29:53;;;;;;;27.88;18.38;;;1.20;99.90;;;;;;5005834;28;20065;-67
2022/03/18 05:32:19;;;;;;;30.90;20.13;;;1.20;99.90;;;;;;5010185;28;20695;-67
2022/03/18 05:34:45;;;;;;;31.80;21.30;;;1.10;99.90;;;;;;5007748;28;20049;-67
2022/03/18 05:37:11;;;;;;;34.55;20.90;;;1.10;99.90;;;;;;5007940;28;20042;-67
2022/03/18 05:39:37;;;;;;;30.27;22.50;;;1.10;99.90;;;;;;5003257;28;20394;-67
2022/03/18 05:42:04;;;;;;;34.47;22.10;;;1.10;99.90;;;;;;5010061;28;20034;-67
2022/03/18 05:44:30;;;;;;;37.35;21.48;;;1.10;99.90;;;;;;5003585;28;20058;-68
2022/03/18 05:46:56;;;;;;;32.03;20.77;;;1.10;99.90;;;;;;5005283;28;20052;-68
2022/03/18 05:49:22;;;;;;;35.33;23.35;;;1.20;99.90;;;;;;5007140;28;20050;-68
2022/03/18 05:51:48;;;;;;;38.10;22.85;;;1.20;99.90;;;;;;5006591;28;20062;-67
2022/03/18 05:54:14;;;;;;;33.00;21.73;;;1.20;99.90;;;;;;5005149;28;20042;-68
2022/03/18 05:56:55;;;;;;;35.72;22.48;;;1.20;99.90;;;;;;5003303;28;20045;-67
2022/03/18 05:59:28;;;;;;;36.92;22.75;;;1.20;99.90;;;;;;4996967;28;20459;-67
2022/03/18 06:01:58;;;;;;;36.17;23.33;;;1.30;99.90;;;;;;5009082;28;20503;-67
2022/03/18 06:04:24;;;;;;;47.78;24.45;;;1.30;99.90;;;;;;5008724;28;20077;-67
2022/03/18 06:06:50;;;;;;;27.85;23.55;;;1.40;99.90;;;;;;5006803;28;20054;-67
2022/03/18 06:12:03;;;;;;;31.20;20.50;;;1.60;99.90;;;;;;5007420;28;20077;-67
2022/03/18 06:14:30;;;;;;;28.77;20.75;;;1.70;99.90;;;;;;5008850;28;20462;-67
2022/03/18 06:17:03;;;;;;;32.85;21.38;;;1.80;99.90;;;;;;5010758;28;20424;-68
2022/03/18 06:19:30;;;;;;;28.92;18.80;;;1.90;99.90;;;;;;5004374;28;20048;-68
2022/03/18 06:21:57;;;;;;;23.05;17.42;;;2.00;99.90;;;;;;5008366;28;20133;-68
2022/03/18 06:24:23;;;;;;;25.83;19.33;;;2.10;99.90;;;;;;5008686;28;20515;-68
2022/03/18 06:26:49;;;;;;;43.05;18.92;;;2.30;99.90;;;;;;5006925;28;20132;-68
2022/03/18 06:29:15;;;;;;;24.35;19.25;;;2.40;99.90;;;;;;5014609;28;20052;-67
2022/03/18 06:31:41;;;;;;;32.42;19.20;;;2.50;99.90;;;;;;5010262;28;20050;-67
2022/03/18 06:34:08;;;;;;;33.08;20.17;;;2.60;99.90;;;;;;5008611;28;20046;-68
2022/03/18 06:36:34;;;;;;;30.23;20.60;;;2.60;99.90;;;;;;5007268;28;20117;-67
2022/03/18 06:39:00;;;;;;;28.08;21.05;;;2.70;99.90;;;;;;5008574;28;20084;-68
2022/03/18 06:41:26;;;;;;;29.08;19.08;;;2.80;99.90;;;;;;5004993;28;20051;-68
2022/03/18 06:43:52;;;;;;;27.63;20.00;;;2.90;99.90;;;;;;5004319;28;20054;-69
2022/03/18 06:46:19;;;;;;;37.08;19.10;;;2.90;99.90;;;;;;5006184;28;20499;-69
2022/03/18 06:48:45;;;;;;;26.33;19.85;;;3.00;99.90;;;;;;5008378;28;20062;-69
2022/03/18 06:51:11;;;;;;;30.73;19.10;;;3.10;99.90;;;;;;5010093;28;20071;-69
2022/03/18 06:53:37;;;;;;;31.42;21.17;;;3.20;99.90;;;;;;5003675;28;20054;-69
2022/03/18 06:56:06;;;;;;;38.83;22.17;;;3.30;99.90;;;;;;5008804;28;20137;-69
2022/03/18 06:58:32;;;;;;;32.90;20.67;;;3.40;99.90;;;;;;5002768;28;20439;-69
2022/03/18 07:00:58;;;;;;;25.70;18.17;;;3.50;99.90;;;;;;5022108;28;21023;-69
2022/03/18 07:03:23;;;;;;;27.83;19.58;;;3.70;99.90;;;;;;5004312;28;20280;-68
2022/03/18 07:05:49;;;;;;;29.60;21.15;;;3.90;99.90;;;;;;5007102;28;20089;-69
2022/03/18 07:08:15;;;;;;;27.65;20.50;;;4.10;99.90;;;;;;4992238;28;20503;-71
2022/03/18 07:10:42;;;;;;;39.22;24.40;;;4.30;99.90;;;;;;5007387;28;20034;-72
2022/03/18 07:13:08;;;;;;;34.03;20.90;;;4.50;99.90;;;;;;4999876;28;20054;-71
2022/03/18 07:15:33;;;;;;;36.63;20.63;;;4.70;99.90;;;;;;5009064;28;20373;-71
2022/03/18 07:17:59;;;;;;;28.63;19.10;;;4.90;99.90;;;;;;5013880;28;20427;-71
2022/03/18 07:20:32;;;;;;;32.92;19.75;;;5.00;99.90;;;;;;5004232;28;20487;-73
2022/03/18 07:23:05;;;;;;;27.35;18.17;;;5.10;99.90;;;;;;5005856;28;20050;-71
2022/03/18 07:25:32;;;;;;;27.17;19.10;;;5.20;99.90;;;;;;5008891;28;20049;-71
2022/03/18 07:27:59;;;;;;;27.88;19.83;;;5.30;99.90;;;;;;5008280;28;20514;-72
2022/03/18 07:30:24;;;;;;;25.10;20.25;;;5.30;99.90;;;;;;5008084;28;20048;-72
2022/03/18 07:32:50;;;;;;;35.15;24.80;;;5.50;99.90;;;;;;5007440;28;20058;-71
2022/03/18 07:35:16;;;;;;;36.85;27.27;;;5.70;99.90;;;;;;5009609;28;20064;-70
2022/03/18 07:37:42;;;;;;;45.08;25.67;;;5.90;99.90;;;;;;5017865;28;20141;-71
2022/03/18 07:40:09;;;;;;;40.35;23.83;;;6.10;99.90;;;;;;5012135;28;20137;-72
2022/03/18 07:42:41;;;;;;;39.83;27.52;;;6.20;99.90;;;;;;4999947;28;20108;-72
2022/03/18 07:45:11;;;;;;;40.95;26.55;;;6.30;99.90;;;;;;4999590;28;20113;-72
2022/03/18 07:47:37;;;;;;;45.00;26.17;;;6.50;99.90;;;;;;4995249;28;20053;-72
2022/03/18 07:50:05;;;;;;;40.03;27.70;;;6.60;99.90;;;;;;5008887;28;20034;-71
2022/03/18 07:52:31;;;;;;;32.60;26.50;;;6.80;99.90;;;;;;5003491;28;20042;-69
2022/03/18 07:54:56;;;;;;;39.92;27.90;;;6.90;99.90;;;;;;5006212;28;20395;-70
2022/03/18 07:57:22;;;;;;;45.38;30.23;;;7.10;99.90;;;;;;5004232;28;20033;-71
2022/03/18 07:59:48;;;;;;;38.95;29.77;;;7.20;99.90;;;;;;5005124;28;20050;-70
2022/03/18 08:02:13;;;;;;;44.03;29.90;;;7.50;99.90;;;;;;5003746;28;20061;-70
2022/03/18 08:04:39;;;;;;;37.17;30.00;;;7.70;99.90;;;;;;5009068;28;20472;-69
2022/03/18 08:07:05;;;;;;;43.78;31.92;;;8.00;99.90;;;;;;5004900;28;20729;-70
2022/03/18 08:09:31;;;;;;;51.70;31.60;;;8.20;99.90;;;;;;5003417;28;20073;-69
2022/03/18 08:11:58;;;;;;;40.85;30.58;;;8.40;99.90;;;;;;5007229;28;20049;-70
2022/03/18 08:14:25;;;;;;;52.22;32.13;;;8.60;99.90;;;;;;5006927;28;20493;-70
2022/03/18 08:16:50;;;;;;;41.05;30.55;;;8.80;99.90;;;;;;5010881;28;20045;-69
2022/03/18 08:19:16;;;;;;;43.45;30.95;;;8.90;99.90;;;;;;5008590;28;20415;-69
2022/03/18 08:21:43;;;;;;;40.72;28.85;;;9.10;99.90;;;;;;5011427;28;20508;-71
2022/03/18 08:24:09;;;;;;;45.88;31.00;;;9.10;99.90;;;;;;5006244;28;20055;-70
2022/03/18 08:26:37;;;;;;;41.45;30.55;;;9.40;99.90;;;;;;5011686;28;20070;-70
2022/03/18 08:29:04;;;;;;;41.95;29.17;;;9.60;99.90;;;;;;4997671;28;20054;-71
2022/03/18 08:31:30;;;;;;;45.30;29.88;;;9.60;99.90;;;;;;5005132;28;20149;-71
2022/03/18 08:33:56;;;;;;;39.97;29.25;;;9.80;99.90;;;;;;5005991;28;20117;-70
2022/03/18 08:36:22;;;;;;;42.47;28.77;;;10.00;99.90;;;;;;5005160;28;20062;-70
2022/03/18 08:38:48;;;;;;;47.17;30.08;;;10.00;99.90;;;;;;5009923;28;20074;-69
2022/03/18 08:41:14;;;;;;;44.53;30.08;;;10.00;99.90;;;;;;5011559;28;20068;-69
2022/03/18 08:43:39;;;;;;;45.88;30.98;;;10.10;99.90;;;;;;5006942;28;20046;-69
2022/03/18 08:46:05;;;;;;;51.13;31.20;;;10.10;99.90;;;;;;5009394;28;20511;-69
2022/03/18 08:48:31;;;;;;;50.25;32.40;;;10.10;99.90;;;;;;5006899;28;20500;-69
2022/03/18 08:50:56;;;;;;;49.50;30.05;;;10.00;99.90;;;;;;5010808;28;20491;-69
2022/03/18 08:53:22;;;;;;;42.47;30.55;;;9.90;99.90;;;;;;5011342;28;20058;-69
2022/03/18 08:55:48;;;;;;;43.90;30.70;;;9.80;99.90;;;;;;5005040;28;20060;-69
2022/03/18 08:58:14;;;;;;;53.13;30.63;;;9.80;99.90;;;;;;5017196;28;20084;-69
2022/03/18 09:00:41;;;;;;;47.03;29.35;;;9.90;99.90;;;;;;5002111;28;20483;-69
2022/03/18 09:03:07;;;;;;;52.15;28.70;;;10.00;99.90;;;;;;5007471;28;20084;-69
2022/03/18 09:05:33;;;;;;;44.90;27.85;;;10.10;99.90;;;;;;5008870;28;20038;-69
2022/03/18 09:07:59;;;;;;;48.15;32.08;;;10.20;99.90;;;;;;5006754;28;20030;-69
2022/03/18 09:10:26;;;;;;;47.47;31.02;;;10.30;99.90;;;;;;5007631;28;20077;-69
2022/03/18 09:12:58;;;;;;;41.88;28.38;;;10.70;99.90;;;;;;5005194;28;20045;-68
2022/03/18 09:15:25;;;;;;;50.28;28.25;;;10.70;99.90;;;;;;5008835;28;20128;-69
2022/03/18 09:17:51;;;;;;;48.42;29.95;;;10.70;99.90;;;;;;5012892;28;20390;-69
2022/03/18 09:20:16;;;;;;;42.60;26.60;;;10.80;99.90;;;;;;5010646;28;20046;-69
2022/03/18 09:22:42;;;;;;;45.38;27.90;;;10.90;99.90;;;;;;5015251;28;20041;-69
2022/03/18 09:25:08;;;;;;;50.65;30.17;;;10.90;99.90;;;;;;5008845;28;20082;-69
2022/03/18 09:27:34;;;;;;;52.35;29.85;;;10.90;99.90;;;;;;5008569;28;20050;-69
2022/03/18 09:30:01;;;;;;;48.40;29.58;;;11.00;99.90;;;;;;5007339;28;20038;-69
2022/03/18 09:32:29;;;;;;;46.50;30.40;;;11.10;99.90;;;;;;5005143;28;20035;-69
2022/03/18 09:34:56;;;;;;;53.28;28.15;;;11.20;99.90;;;;;;5010223;28;20121;-69
2022/03/18 09:37:22;;;;;;;58.15;30.17;;;11.20;99.90;;;;;;5007737;28;20076;-69
2022/03/18 09:39:47;;;;;;;57.55;29.27;;;11.30;99.90;;;;;;5004279;28;20088;-69
2022/03/18 09:42:13;;;;;;;45.20;27.98;;;11.30;99.90;;;;;;5010560;28;20552;-69
2022/03/18 09:44:40;;;;;;;59.28;28.50;;;11.40;99.90;;;;;;5004579;28;20052;-69
2022/03/18 09:47:09;;;;;;;59.25;29.25;;;11.30;99.90;;;;;;5010545;28;20099;-69
2022/03/18 09:49:36;;;;;;;53.88;30.00;;;11.30;99.90;;;;;;4999785;28;20049;-68
2022/03/18 09:52:03;;;;;;;43.38;30.70;;;11.50;99.90;;;;;;5006295;28;20046;-69
2022/03/18 09:54:32;;;;;;;48.08;31.98;;;11.50;99.90;;;;;;5010756;28;20050;-69
2022/03/18 09:56:59;;;;;;;44.63;27.52;;;11.60;99.90;;;;;;5007855;28;20050;-69
2022/03/18 09:59:27;;;;;;;51.42;26.95;;;11.80;99.90;;;;;;5008183;28;20041;-69
2022/03/18 10:02:22;;;;;;;49.75;29.60;;;11.80;99.90;;;;;;5007277;28;20149;-68
2022/03/18 10:04:59;;;;;;;55.15;34.25;;;11.80;99.90;;;;;;5006755;28;20516;-69
2022/03/18 10:07:27;;;;;;;47.28;29.67;;;11.90;99.90;;;;;;5005942;28;20042;-69
2022/03/18 10:10:14;;;;;;;48.55;30.73;;;12.10;99.90;;;;;;5010768;28;20042;-69
2022/03/18 10:12:42;;;;;;;49.83;30.52;;;12.10;99.90;;;;;;5006115;28;20068;-69
2022/03/18 10:15:15;;;;;;;47.72;30.40;;;12.20;99.90;;;;;;5009565;28;20049;-69
2022/03/18 10:17:43;;;;;;;38.90;27.40;;;12.20;99.90;;;;;;5016477;28;20105;-69
2022/03/18 10:20:30;;;;;;;50.08;26.27;;;12.20;99.90;;;;;;5005952;28;20512;-69
2022/03/18 10:23:15;;;;;;;49.73;31.03;;;12.20;99.90;;;;;;5013454;28;20049;-71
2022/03/18 10:25:52;;;;;;;45.78;26.77;;;12.40;99.90;;;;;;5006900;28;20095;-69
2022/03/18 10:28:35;;;;;;;45.13;28.73;;;12.60;99.90;;;;;;5003845;28;20053;-69
2022/03/18 10:31:19;;;;;;;44.15;28.67;;;12.60;99.90;;;;;;5000970;28;20719;-69
2022/03/18 10:39:31;;;;;;;45.13;30.00;;;12.80;99.90;;;;;;5009022;28;20439;-69
2022/03/18 10:42:02;;;;;;;55.65;32.55;;;13.00;99.90;;;;;;5005518;28;20042;-69
2022/03/18 10:44:47;;;;;;;41.60;28.40;;;13.10;99.90;;;;;;5003927;28;20058;-69
2022/03/18 10:47:31;;;;;;;45.08;27.55;;;13.20;99.90;;;;;;5005677;28;20054;-69
2022/03/18 10:50:15;;;;;;;41.78;28.00;;;13.20;99.90;;;;;;4999627;28;20057;-69
2022/03/18 10:53:01;;;;;;;39.25;27.05;;;13.20;99.90;;;;;;5005573;28;20053;-68
2022/03/18 10:55:31;;;;;;;37.33;25.30;;;13.60;99.90;;;;;;5001489;28;20034;-69
2022/03/18 10:58:01;;;;;;;50.03;27.33;;;13.70;99.90;;;;;;4999684;28;20129;-69
2022/03/18 11:00:33;;;;;;;37.25;24.35;;;13.70;99.90;;;;;;4997657;28;20101;-69
2022/03/18 11:03:03;;;;;;;50.22;27.10;;;13.90;99.90;;;;;;5000028;28;20469;-69
2022/03/18 11:05:40;;;;;;;48.53;24.88;;;13.90;99.90;;;;;;5001202;28;20050;-69
2022/03/18 11:08:21;;;;;;;34.80;26.27;;;14.00;99.90;;;;;;4999073;28;20050;-68
2022/03/18 11:11:14;;;;;;;45.03;28.40;;;14.00;99.90;;;;;;5003264;28;20080;-68
2022/03/18 11:13:51;;;;;;;39.88;25.50;;;14.20;99.90;;;;;;5005587;28;20049;-68
2022/03/18 11:16:23;;;;;;;48.10;23.42;;;14.30;99.90;;;;;;5006843;28;20117;-68
2022/03/18 11:18:49;;;;;;;31.60;23.00;;;14.30;99.90;;;;;;5002624;28;20543;-68
2022/03/18 11:21:16;;;;;;;40.78;24.58;;;14.10;99.90;;;;;;5007875;28;20050;-67
2022/03/18 11:23:45;;;;;;;42.47;23.00;;;14.20;99.90;;;;;;5000871;28;20038;-67
2022/03/18 11:26:11;;;;;;;;;;;14.20;99.90;;;;;;5005612;28;20450;-67
2022/03/18 11:28:37;;;;;;;34.50;24.25;;;14.40;99.90;;;;;;5006432;28;19925;-67
2022/03/18 11:31:05;;;;;;;34.53;22.30;;;14.60;99.90;;;;;;5004619;28;20414;-66
2022/03/18 11:33:32;;;;;;;42.78;25.13;;;14.50;99.90;;;;;;5007642;28;20111;-67
2022/03/18 11:36:00;;;;;;;42.00;25.23;;;14.30;99.90;;;;;;5004145;28;20045;-66
2022/03/18 11:38:31;;;;;;;33.50;22.55;;;14.40;99.90;;;;;;5008258;28;20093;-67
2022/03/18 11:40:58;;;;;;;37.92;21.25;;;14.50;99.90;;;;;;5009727;28;20049;-67
2022/03/18 11:43:35;;;;;;;44.87;24.13;;;14.40;99.90;;;;;;5006819;28;20561;-67
2022/03/18 11:48:57;;;;;;;32.50;18.00;;;14.50;99.90;;;;;;5010045;28;20100;-67
2022/03/18 11:51:30;;;;;;;30.35;16.77;;;14.50;99.90;;;;;;5011051;28;20078;-67
2022/03/18 11:54:00;;;;;;;24.77;15.25;;;14.50;99.90;;;;;;5010334;28;20085;-68
2022/03/18 11:56:45;;;;;;;32.20;16.40;;;14.80;99.90;;;;;;5010882;28;20061;-68
2022/03/18 11:59:25;;;;;;;32.97;16.52;;;14.70;99.90;;;;;;5006184;28;20050;-67
2022/03/18 12:02:01;;;;;;;30.38;18.75;;;15.00;99.90;;;;;;5008965;28;20061;-67
2022/03/18 12:04:44;;;;;;;35.00;20.77;;;14.70;99.90;;;;;;5002474;28;20064;-68
2022/03/18 12:07:20;;;;;;;33.33;18.80;;;14.80;99.90;;;;;;5004647;28;20050;-68
2022/03/18 12:09:55;;;;;;;30.95;18.67;;;14.90;99.90;;;;;;5009642;28;20069;-68
2022/03/18 12:12:25;;;;;;;30.65;19.52;;;15.30;99.90;;;;;;5011771;28;20413;-68
2022/03/18 12:14:53;;;;;;;26.98;19.35;;;15.20;99.90;;;;;;5014211;28;20034;-68
2022/03/18 12:17:19;;;;;;;33.75;19.55;;;15.20;99.90;;;;;;5016459;28;20038;-68
2022/03/18 12:19:57;;;;;;;28.23;18.42;;;15.30;99.90;;;;;;5013785;28;20041;-68
2022/03/18 12:22:24;;;;;;;35.17;19.42;;;15.30;99.90;;;;;;5010430;28;20050;-68
2022/03/18 12:24:59;;;;;;;33.60;19.17;;;15.20;99.90;;;;;;5012841;28;20046;-68
2022/03/18 12:27:30;;;;;;;30.45;18.92;;;15.20;99.90;;;;;;5008325;28;20510;-69
2022/03/18 12:29:59;;;;;;;30.30;18.65;;;15.10;99.90;;;;;;5017035;28;20128;-68
2022/03/18 12:32:25;;;;;;;37.13;18.63;;;15.10;99.90;;;;;;5010179;28;20049;-68
2022/03/18 12:34:54;;;;;;;36.08;19.92;;;15.20;99.90;;;;;;5014603;28;20037;-68
2022/03/18 12:37:31;;;;;;;37.00;18.83;;;15.10;99.90;;;;;;5007265;28;20152;-68
2022/03/18 12:40:09;;;;;;;26.88;16.77;;;15.10;99.90;;;;;;5006657;28;20046;-68
2022/03/18 12:42:56;;;;;;;25.20;15.68;;;15.10;99.90;;;;;;5015218;28;20038;-69
2022/03/18 12:45:42;;;;;;;32.70;16.73;;;15.20;99.90;;;;;;5008557;28;20093;-68
2022/03/18 12:48:15;;;;;;;35.88;18.50;;;15.40;99.90;;;;;;5013019;28;20601;-68
2022/03/18 12:50:45;;;;;;;33.88;18.42;;;15.50;99.90;;;;;;5007941;28;20057;-69
2022/03/18 12:53:19;;;;;;;30.15;15.98;;;15.70;99.70;;;;;;5020093;28;20045;-69
2022/03/18 12:55:56;;;;;;;22.25;10.93;;;15.80;98.60;;;;;;5014101;28;20120;-68
2022/03/18 12:58:24;;;;;;;17.88;11.10;;;15.50;97.40;;;;;;5007296;28;20050;-68